This is the latest recevied weather packets stored in our database for station/object OK1LPD-6. If no packets are shown the sender has not sent any weather packets the latest 1 day(s).
| Time | Temp. | Humidity | Pressure | Rain* | Wind** | Luminosity | Snow |
|---|---|---|---|---|---|---|---|
| 1778103325 | 13.89° C | 93% | 1006.6 hPa | 1.27 mm | - | - | - |
| 1778099725 | 14.44° C | 93% | 1006.6 hPa | 3.56 mm | - | - | - |
| 1778099126 | 14.44° C | 91% | 1006.8 hPa | 3.05 mm | - | - | - |
| 1778097925 | 15.56° C | 85% | 1006.7 hPa | 0 mm | - | - | - |
| 1778094326 | 15.56° C | 86% | 1005.3 hPa | 0 mm | - | - | - |
| 1778093145 | 15.56° C | 86% | 1004.9 hPa | 0 mm | - | - | - |
| 1778091927 | 16.11° C | 83% | 1004.7 hPa | 0 mm | - | - | - |
| 1778089539 | 17.22° C | 77% | 1004.3 hPa | 0 mm | - | - | - |
| 1778087739 | 19.44° C | 70% | 1004.3 hPa | 0 mm | - | - | - |
| 1778085938 | 17.22° C | 77% | 1004.1 hPa | 0 mm | - | - | - |
| 1778081128 | 16.67° C | 78% | 1005 hPa | 0.51 mm | - | - | - |
| 1778079928 | 17.78° C | 63% | 1005 hPa | 0 mm | - | - | - |
| 1778070930 | 22.78° C | 41% | 1005.6 hPa | 0 mm | - | - | - |
| 1778070330 | 23.89° C | 41% | 1005.8 hPa | 0 mm | - | - | - |
| 1778066730 | 23.33° C | 43% | 1006.2 hPa | 0 mm | - | - | - |
| 1778065530 | 23.33° C | 45% | 1006.5 hPa | 0 mm | - | - | - |
| 1778064931 | 23.33° C | 45% | 1006.5 hPa | 0 mm | - | - | - |
| 1778063731 | 22.22° C | 50% | 1006.7 hPa | 0 mm | - | - | - |
| 1778063131 | 22.22° C | 50% | 1006.9 hPa | 0 mm | - | - | - |
| 1778061932 | 21.11° C | 51% | 1006.9 hPa | 0 mm | - | - | - |
| 1778061331 | 21.11° C | 51% | 1007 hPa | 0 mm | - | - | - |
| 1778060750 | 21.11° C | 50% | 1007 hPa | 0 mm | - | - | - |
| 1778059531 | 20.56° C | 53% | 1007 hPa | 0 mm | - | - | - |
| 1778056532 | 18.89° C | 60% | 1007.2 hPa | 0 mm | - | - | - |
| 1778055354 | 19.44° C | 60% | 1007.1 hPa | 0 mm | - | - | - |
* Rain latest hour (hover to see other rain measurements)
** Current wind speed in m/s (hover to see current wind gust speed)